Time;durP1;ratioP1;P1;durP2;ratioP2;P2;SDS_P1;SDS_P2;PMS_P1;PMS_P2;Temp;Humidity;BMP_temperature;BMP_pressure;BME280_temperature;BME280_humidity;BME280_pressure;Samples;Min_cycle;Max_cycle;Signal;HPM_P1;HPM_P2
2023/09/15 00:00:06;;;;;;;631.72;151.35;;;;;;;;;;5021997;28;20045;-54
2023/09/15 00:02:32;;;;;;;637.50;154.32;;;;;;;;;;5022658;28;20033;-52
2023/09/15 00:04:57;;;;;;;638.80;152.45;;;;;;;;;;5021150;28;20021;-53
2023/09/15 00:07:22;;;;;;;634.40;142.10;;;;;;;;;;5023322;28;20037;-52
2023/09/15 00:09:48;;;;;;;634.67;150.18;;;;;;;;;;5021186;28;20037;-53
2023/09/15 00:12:13;;;;;;;631.03;146.88;;;;;;;;;;5022359;28;20064;-55
2023/09/15 00:14:38;;;;;;;630.90;148.07;;;;;;;;;;5020116;28;20104;-53
2023/09/15 00:17:03;;;;;;;671.05;230.73;;;;;;;;;;5023231;28;20026;-55
2023/09/15 00:19:29;;;;;;;715.97;346.20;;;;;;;;;;5032180;28;20047;-54
2023/09/15 00:21:55;;;;;;;715.45;339.65;;;;;;;;;;5066036;28;20035;-56
2023/09/15 00:24:21;;;;;;;694.45;274.95;;;;;;;;;;5063471;28;20027;-53
2023/09/15 00:26:48;;;;;;;703.83;296.27;;;;;;;;;;5065748;28;20016;-54
2023/09/15 00:29:14;;;;;;;634.88;146.68;;;;;;;;;;5062534;28;20024;-53
2023/09/15 00:31:40;;;;;;;636.40;149.40;;;;;;;;;;5065191;28;20021;-53
2023/09/15 00:34:05;;;;;;;633.42;147.82;;;;;;;;;;5058553;28;20021;-51
2023/09/15 00:36:31;;;;;;;631.08;145.15;;;;;;;;;;5049029;28;20080;-54
2023/09/15 00:38:56;;;;;;;640.17;152.32;;;;;;;;;;5062899;28;20485;-51
2023/09/15 00:41:21;;;;;;;638.45;151.10;;;;;;;;;;5045974;28;20052;-55
2023/09/15 00:43:46;;;;;;;636.40;149.23;;;;;;;;;;5046279;28;20129;-54
2023/09/15 00:46:12;;;;;;;630.28;144.10;;;;;;;;;;5052915;28;20391;-50
2023/09/15 00:48:39;;;;;;;634.40;146.40;;;;;;;;;;5065436;28;20021;-54
2023/09/15 00:51:06;;;;;;;628.60;149.65;;;;;;;;;;5046146;28;20021;-53
2023/09/15 00:53:33;;;;;;;627.08;146.13;;;;;;;;;;5045609;28;20104;-53
2023/09/15 00:55:58;;;;;;;628.58;145.43;;;;;;;;;;5062302;28;20075;-56
2023/09/15 00:58:23;;;;;;;631.85;150.70;;;;;;;;;;5065379;28;20493;-55
2023/09/15 01:00:49;;;;;;;628.15;150.13;;;;;;;;;;5060232;28;20085;-53
2023/09/15 01:03:17;;;;;;;631.25;147.68;;;;;;;;;;5065436;28;20059;-54
2023/09/15 01:05:43;;;;;;;626.15;145.63;;;;;;;;;;5049729;28;20470;-54
2023/09/15 01:08:08;;;;;;;644.50;167.30;;;;;;;;;;5057296;28;20420;-53
2023/09/15 01:10:33;;;;;;;629.38;149.73;;;;;;;;;;5063569;28;20028;-53
2023/09/15 01:12:59;;;;;;;627.35;145.68;;;;;;;;;;5065103;28;20021;-55
2023/09/15 01:15:45;;;;;;;630.17;150.20;;;;;;;;;;5063102;28;20028;-54
2023/09/15 01:18:19;;;;;;;623.40;148.48;;;;;;;;;;5064588;28;20037;-52
2023/09/15 01:20:53;;;;;;;627.63;148.55;;;;;;;;;;5063127;28;20401;-56
2023/09/15 01:23:37;;;;;;;628.30;150.68;;;;;;;;;;5065266;28;20020;-52
2023/09/15 01:26:02;;;;;;;627.33;142.70;;;;;;;;;;5063394;28;20028;-56
2023/09/15 01:28:48;;;;;;;627.03;146.93;;;;;;;;;;5064639;28;20412;-51
2023/09/15 01:31:13;;;;;;;625.15;145.60;;;;;;;;;;4984141;28;20048;-55
2023/09/15 01:33:39;;;;;;;622.75;147.05;;;;;;;;;;5001759;28;20030;-54
2023/09/15 01:36:05;;;;;;;627.22;148.88;;;;;;;;;;5000316;28;20076;-54
2023/09/15 01:38:31;;;;;;;622.72;150.32;;;;;;;;;;5002490;28;20076;-54
2023/09/15 01:40:56;;;;;;;624.55;149.73;;;;;;;;;;5001057;28;20088;-55
2023/09/15 01:43:22;;;;;;;627.05;146.07;;;;;;;;;;5001969;28;20069;-52
2023/09/15 01:45:47;;;;;;;624.30;146.68;;;;;;;;;;4998062;28;20468;-54
2023/09/15 01:48:14;;;;;;;627.95;147.95;;;;;;;;;;5001310;28;20503;-54
2023/09/15 01:50:40;;;;;;;625.95;146.52;;;;;;;;;;5015393;28;20030;-54
2023/09/15 01:53:05;;;;;;;622.35;143.30;;;;;;;;;;5001590;28;20113;-54
2023/09/15 01:55:31;;;;;;;623.20;145.55;;;;;;;;;;5000377;28;20040;-55
2023/09/15 01:57:57;;;;;;;624.38;146.85;;;;;;;;;;5001818;28;20077;-54
2023/09/15 02:00:22;;;;;;;628.35;148.60;;;;;;;;;;4996935;28;20036;-54
2023/09/15 02:02:47;;;;;;;623.80;144.55;;;;;;;;;;4970912;28;20040;-55
2023/09/15 02:05:19;;;;;;;672.55;224.48;;;;;;;;;;5003669;28;20041;-55
2023/09/15 02:07:45;;;;;;;673.67;231.07;;;;;;;;;;5015423;28;20055;-55
2023/09/15 02:10:10;;;;;;;671.13;226.07;;;;;;;;;;5057956;28;20513;-54
2023/09/15 02:12:35;;;;;;;621.28;142.90;;;;;;;;;;5067049;28;20059;-55
2023/09/15 02:15:01;;;;;;;619.47;140.52;;;;;;;;;;5065975;28;20046;-55
2023/09/15 02:17:26;;;;;;;622.42;145.18;;;;;;;;;;5067680;28;20067;-54
2023/09/15 02:19:51;;;;;;;625.38;144.38;;;;;;;;;;5066777;28;20066;-54
2023/09/15 02:22:17;;;;;;;622.40;142.60;;;;;;;;;;5068594;28;20107;-56
2023/09/15 02:24:42;;;;;;;629.28;146.27;;;;;;;;;;5067166;28;20078;-54
2023/09/15 02:27:07;;;;;;;697.58;295.20;;;;;;;;;;5068416;28;20021;-55
2023/09/15 02:29:32;;;;;;;685.55;238.18;;;;;;;;;;5043486;28;20079;-54
2023/09/15 02:31:58;;;;;;;626.33;143.02;;;;;;;;;;5045134;28;20039;-56
2023/09/15 02:34:23;;;;;;;646.13;182.50;;;;;;;;;;5043373;28;20041;-54
2023/09/15 02:36:48;;;;;;;628.75;147.38;;;;;;;;;;5039497;28;20052;-52
2023/09/15 02:39:13;;;;;;;624.92;147.88;;;;;;;;;;5042939;28;20585;-55
2023/09/15 02:41:39;;;;;;;625.20;145.65;;;;;;;;;;5044649;28;20079;-52
2023/09/15 02:44:04;;;;;;;629.38;147.73;;;;;;;;;;5043263;28;20814;-51
2023/09/15 02:46:29;;;;;;;624.00;147.27;;;;;;;;;;5028784;28;20125;-52
2023/09/15 02:48:56;;;;;;;630.15;152.00;;;;;;;;;;5025148;28;20096;-55
2023/09/15 02:51:21;;;;;;;627.72;151.05;;;;;;;;;;5027991;28;20025;-55
2023/09/15 02:53:46;;;;;;;629.40;146.73;;;;;;;;;;5044086;28;20605;-55
2023/09/15 02:56:12;;;;;;;627.47;147.60;;;;;;;;;;5026101;28;20042;-55
2023/09/15 02:58:37;;;;;;;631.45;148.88;;;;;;;;;;5040557;28;20592;-54
2023/09/15 03:01:15;;;;;;;635.30;154.68;;;;;;;;;;5058574;28;20048;-55
2023/09/15 03:03:41;;;;;;;638.15;153.85;;;;;;;;;;5067144;28;20017;-55
2023/09/15 03:06:07;;;;;;;629.72;149.65;;;;;;;;;;5049213;28;20106;-54
2023/09/15 03:08:33;;;;;;;630.38;153.50;;;;;;;;;;5047260;28;20025;-55
2023/09/15 03:10:59;;;;;;;624.30;150.63;;;;;;;;;;5059972;28;20132;-55
2023/09/15 03:13:24;;;;;;;626.22;153.00;;;;;;;;;;5065725;28;20491;-53
2023/09/15 03:15:49;;;;;;;628.95;152.63;;;;;;;;;;5062538;28;20549;-53
2023/09/15 03:18:14;;;;;;;625.67;147.18;;;;;;;;;;5066990;28;20040;-55
2023/09/15 03:20:40;;;;;;;633.53;151.30;;;;;;;;;;5064570;28;20028;-50
2023/09/15 03:23:05;;;;;;;631.08;149.38;;;;;;;;;;5067218;28;20017;-51
2023/09/15 03:25:30;;;;;;;633.42;152.93;;;;;;;;;;5065116;28;20040;-53
2023/09/15 03:27:56;;;;;;;682.83;250.95;;;;;;;;;;5067380;28;20090;-51
2023/09/15 03:30:21;;;;;;;634.97;152.50;;;;;;;;;;5066139;28;20052;-52
2023/09/15 03:32:47;;;;;;;634.75;152.35;;;;;;;;;;5066660;28;20538;-56
2023/09/15 03:35:13;;;;;;;633.97;154.73;;;;;;;;;;5064821;28;20416;-55
2023/09/15 03:37:38;;;;;;;631.60;157.73;;;;;;;;;;5049513;28;20039;-54
2023/09/15 03:40:05;;;;;;;634.60;159.93;;;;;;;;;;5062318;28;20562;-54
2023/09/15 03:42:31;;;;;;;629.50;154.00;;;;;;;;;;5065892;28;20426;-56
2023/09/15 03:44:56;;;;;;;629.75;153.13;;;;;;;;;;5061267;28;20458;-55
2023/09/15 03:47:21;;;;;;;637.97;156.85;;;;;;;;;;5046920;28;20579;-55
2023/09/15 03:49:46;;;;;;;627.15;149.80;;;;;;;;;;5053666;28;20032;-54
2023/09/15 03:52:12;;;;;;;625.05;152.80;;;;;;;;;;5066644;28;20054;-56
2023/09/15 03:54:37;;;;;;;624.15;150.85;;;;;;;;;;5065666;28;20098;-54
2023/09/15 03:57:03;;;;;;;629.40;159.77;;;;;;;;;;5065354;28;20482;-55
2023/09/15 03:59:29;;;;;;;624.65;152.10;;;;;;;;;;5053387;28;20116;-55
2023/09/15 04:01:54;;;;;;;625.55;152.98;;;;;;;;;;5055049;28;20040;-50
2023/09/15 04:04:19;;;;;;;625.70;150.32;;;;;;;;;;5064875;28;20492;-55
2023/09/15 04:06:44;;;;;;;627.20;154.73;;;;;;;;;;5065893;28;20024;-52
2023/09/15 04:09:13;;;;;;;624.80;151.75;;;;;;;;;;5063476;28;20031;-55
2023/09/15 04:11:41;;;;;;;633.00;157.52;;;;;;;;;;5065188;28;20090;-56
2023/09/15 04:14:07;;;;;;;634.70;157.33;;;;;;;;;;5064573;28;20036;-53
2023/09/15 04:16:32;;;;;;;631.53;153.35;;;;;;;;;;5065986;28;20024;-54
2023/09/15 04:18:58;;;;;;;628.33;153.55;;;;;;;;;;5064703;28;20024;-53
2023/09/15 04:21:23;;;;;;;629.00;154.98;;;;;;;;;;5065785;28;20642;-54
2023/09/15 04:23:49;;;;;;;661.75;186.23;;;;;;;;;;5065309;28;20020;-54
2023/09/15 04:26:14;;;;;;;644.28;170.45;;;;;;;;;;5064040;28;20024;-54
2023/09/15 04:28:39;;;;;;;631.13;160.25;;;;;;;;;;5063383;28;20025;-54
2023/09/15 04:31:04;;;;;;;635.35;157.50;;;;;;;;;;5064175;28;20436;-54
2023/09/15 04:33:30;;;;;;;634.17;156.35;;;;;;;;;;5066019;28;20044;-55
2023/09/15 04:35:55;;;;;;;633.55;156.43;;;;;;;;;;5061481;28;20013;-53
2023/09/15 04:38:20;;;;;;;634.63;160.40;;;;;;;;;;5044651;28;20036;-54
2023/09/15 04:40:46;;;;;;;634.05;159.60;;;;;;;;;;5064213;28;20128;-55
2023/09/15 04:43:12;;;;;;;637.83;159.90;;;;;;;;;;5065457;28;20815;-55
2023/09/15 04:45:38;;;;;;;633.25;157.43;;;;;;;;;;5053787;28;20397;-54
2023/09/15 04:48:03;;;;;;;629.63;154.25;;;;;;;;;;5055442;28;20039;-55
2023/09/15 04:50:29;;;;;;;643.22;162.93;;;;;;;;;;5063034;28;20064;-54
2023/09/15 04:52:55;;;;;;;640.17;156.18;;;;;;;;;;5065359;28;20017;-56
2023/09/15 04:55:20;;;;;;;638.58;164.70;;;;;;;;;;5064043;28;20031;-55
2023/09/15 04:57:46;;;;;;;644.58;164.50;;;;;;;;;;5065258;28;20377;-53
2023/09/15 05:00:23;;;;;;;635.00;154.85;;;;;;;;;;5060120;28;20282;-52
2023/09/15 05:02:48;;;;;;;636.30;160.43;;;;;;;;;;5062520;28;20028;-53
2023/09/15 05:05:13;;;;;;;638.67;158.23;;;;;;;;;;5053360;28;20512;-54
2023/09/15 05:07:39;;;;;;;638.17;159.95;;;;;;;;;;5045134;28;20021;-56
2023/09/15 05:10:04;;;;;;;639.83;162.43;;;;;;;;;;5055428;28;20086;-54
2023/09/15 05:12:29;;;;;;;635.13;157.38;;;;;;;;;;5063099;28;20039;-55
2023/09/15 05:14:54;;;;;;;637.83;158.65;;;;;;;;;;5056062;28;20040;-54
2023/09/15 05:17:22;;;;;;;632.50;157.90;;;;;;;;;;5045225;28;20482;-54
2023/09/15 05:19:47;;;;;;;630.97;154.75;;;;;;;;;;5051611;28;20036;-53
2023/09/15 05:22:13;;;;;;;631.63;155.30;;;;;;;;;;5064960;28;20021;-56
2023/09/15 05:24:38;;;;;;;676.75;246.05;;;;;;;;;;5063368;28;20126;-53
2023/09/15 05:27:03;;;;;;;650.92;193.10;;;;;;;;;;5064843;28;20034;-54
2023/09/15 05:29:29;;;;;;;635.40;156.57;;;;;;;;;;5063380;28;20602;-55
2023/09/15 05:31:54;;;;;;;635.45;161.75;;;;;;;;;;5061222;28;20017;-54
2023/09/15 05:34:20;;;;;;;675.88;261.85;;;;;;;;;;5058767;28;20017;-52
2023/09/15 05:36:45;;;;;;;676.58;235.55;;;;;;;;;;5052148;28;20017;-54
2023/09/15 05:39:10;;;;;;;651.38;173.52;;;;;;;;;;5058235;28;20041;-55
2023/09/15 05:41:36;;;;;;;634.60;163.57;;;;;;;;;;5057887;28;20028;-54
2023/09/15 05:44:01;;;;;;;642.80;167.82;;;;;;;;;;5054993;28;20690;-54
2023/09/15 05:46:26;;;;;;;641.83;165.45;;;;;;;;;;5053204;28;20029;-56
2023/09/15 05:48:52;;;;;;;646.95;169.50;;;;;;;;;;5060075;28;20047;-55
2023/09/15 05:51:17;;;;;;;632.85;157.82;;;;;;;;;;5061092;28;20147;-56
2023/09/15 05:53:42;;;;;;;637.63;164.85;;;;;;;;;;5055828;28;20024;-54
2023/09/15 05:56:07;;;;;;;646.13;174.23;;;;;;;;;;5053945;28;20119;-56
2023/09/15 05:58:33;;;;;;;679.53;203.63;;;;;;;;;;5053010;28;20074;-53
2023/09/15 06:00:58;;;;;;;629.38;156.73;;;;;;;;;;5056623;28;20030;-51
2023/09/15 06:03:24;;;;;;;458.38;166.50;;;;;;;;;;5046812;28;20406;-54
2023/09/15 06:05:49;;;;;;;421.77;127.00;;;;;;;;;;5054618;28;20025;-56
2023/09/15 06:08:14;;;;;;;438.83;162.02;;;;;;;;;;5064945;28;20036;-57
2023/09/15 06:10:40;;;;;;;431.00;103.30;;;;;;;;;;5053837;28;20067;-55
2023/09/15 06:13:05;;;;;;;611.85;142.10;;;;;;;;;;5058537;28;20432;-53
2023/09/15 06:15:31;;;;;;;277.95;77.30;;;;;;;;;;5055869;28;20028;-53
2023/09/15 06:17:56;;;;;;;438.27;109.85;;;;;;;;;;5056786;28;20032;-53
2023/09/15 06:20:21;;;;;;;272.70;73.15;;;;;;;;;;5054275;28;20402;-53
2023/09/15 06:22:46;;;;;;;273.75;73.18;;;;;;;;;;5052053;28;20148;-53
2023/09/15 06:25:12;;;;;;;271.73;72.60;;;;;;;;;;5064810;28;20024;-54
2023/09/15 06:27:37;;;;;;;626.20;152.20;;;;;;;;;;5058341;28;20450;-52
2023/09/15 06:30:05;;;;;;;25.38;23.35;;;;;;;;;;5055217;28;20024;-54
2023/09/15 06:32:30;;;;;;;31.27;27.90;;;;;;;;;;5057029;28;20031;-58
2023/09/15 06:34:56;;;;;;;25.60;23.65;;;;;;;;;;5053748;28;20107;-54
2023/09/15 06:37:21;;;;;;;23.38;21.58;;;;;;;;;;5060178;28;20351;-55
2023/09/15 06:39:46;;;;;;;28.90;26.13;;;;;;;;;;5058775;28;20036;-55
2023/09/15 06:42:11;;;;;;;26.95;24.50;;;;;;;;;;5055983;28;20058;-55
2023/09/15 06:44:37;;;;;;;28.63;26.35;;;;;;;;;;5053081;28;20608;-54
2023/09/15 06:47:03;;;;;;;109.45;41.88;;;;;;;;;;5052855;28;20025;-53
2023/09/15 06:49:30;;;;;;;649.85;160.40;;;;;;;;;;5050764;28;20024;-53
2023/09/15 06:51:55;;;;;;;26.85;24.58;;;;;;;;;;5055552;28;20025;-54
2023/09/15 06:54:23;;;;;;;26.40;24.35;;;;;;;;;;5054178;28;20350;-55
2023/09/15 06:56:49;;;;;;;27.80;25.47;;;;;;;;;;5060920;28;20638;-51
2023/09/15 06:59:14;;;;;;;288.48;81.70;;;;;;;;;;5048461;28;20363;-55
2023/09/15 07:01:40;;;;;;;28.15;25.50;;;;;;;;;;5060119;28;20016;-53
2023/09/15 07:04:05;;;;;;;26.63;24.48;;;;;;;;;;5061763;28;20123;-51
2023/09/15 07:06:31;;;;;;;25.05;22.98;;;;;;;;;;5060117;28;20112;-54
2023/09/15 07:08:57;;;;;;;108.90;40.72;;;;;;;;;;5046546;28;20813;-55
2023/09/15 07:11:22;;;;;;;480.98;123.15;;;;;;;;;;5052543;28;20364;-52
2023/09/15 07:13:47;;;;;;;679.58;176.95;;;;;;;;;;5055492;28;20056;-53
2023/09/15 07:16:13;;;;;;;663.80;194.88;;;;;;;;;;5059570;28;20024;-55
2023/09/15 07:18:38;;;;;;;656.45;189.48;;;;;;;;;;5053525;28;20032;-55
2023/09/15 07:21:03;;;;;;;640.38;181.57;;;;;;;;;;5058707;28;20124;-54
2023/09/15 07:23:28;;;;;;;668.43;199.00;;;;;;;;;;5050134;28;20040;-57
2023/09/15 07:25:54;;;;;;;491.92;135.50;;;;;;;;;;5061260;28;20470;-56
2023/09/15 07:28:20;;;;;;;315.05;116.43;;;;;;;;;;5061440;28;20036;-55
2023/09/15 07:30:45;;;;;;;685.28;208.05;;;;;;;;;;5055259;28;20166;-51
2023/09/15 07:33:10;;;;;;;299.73;104.85;;;;;;;;;;5058768;28;20048;-56
2023/09/15 07:35:36;;;;;;;689.30;203.60;;;;;;;;;;5059474;28;20521;-55
2023/09/15 07:38:04;;;;;;;483.75;149.35;;;;;;;;;;5055999;28;20044;-52
2023/09/15 07:40:29;;;;;;;48.83;44.50;;;;;;;;;;5051066;28;20376;-55
2023/09/15 07:42:54;;;;;;;512.15;154.32;;;;;;;;;;5056002;28;20265;-54
2023/09/15 07:45:20;;;;;;;712.97;199.85;;;;;;;;;;5053554;28;20050;-57
2023/09/15 07:47:46;;;;;;;48.30;44.42;;;;;;;;;;5061451;28;20060;-54
2023/09/15 07:50:13;;;;;;;56.13;51.53;;;;;;;;;;5059143;28;20021;-53
2023/09/15 07:52:38;;;;;;;55.10;50.03;;;;;;;;;;5057978;28;20025;-55
2023/09/15 07:55:04;;;;;;;64.75;58.88;;;;;;;;;;5048352;28;20571;-55
2023/09/15 07:57:32;;;;;;;55.72;50.97;;;;;;;;;;5065101;28;20029;-53
2023/09/15 07:59:58;;;;;;;49.35;45.47;;;;;;;;;;5061946;28;20035;-54
2023/09/15 08:02:23;;;;;;;53.42;49.25;;;;;;;;;;5054035;28;20107;-55
2023/09/15 08:04:49;;;;;;;87.28;36.30;;;;;;;;;;5057935;28;20032;-54
2023/09/15 08:07:14;;;;;;;638.10;269.95;;;;;;;;;;5056732;28;20082;-54
2023/09/15 08:09:39;;;;;;;653.65;290.02;;;;;;;;;;5062891;28;20035;-55
2023/09/15 08:12:05;;;;;;;645.50;278.83;;;;;;;;;;5064971;28;20017;-54
2023/09/15 08:14:30;;;;;;;659.13;298.95;;;;;;;;;;5058879;28;20117;-54
2023/09/15 08:16:55;;;;;;;652.08;294.88;;;;;;;;;;5060355;28;20036;-54
2023/09/15 08:19:21;;;;;;;660.88;315.15;;;;;;;;;;5057371;28;20032;-55
2023/09/15 08:21:46;;;;;;;653.88;302.55;;;;;;;;;;5052305;28;20025;-55
2023/09/15 08:24:11;;;;;;;652.40;299.67;;;;;;;;;;5053552;28;20481;-53
2023/09/15 08:26:37;;;;;;;653.13;297.58;;;;;;;;;;5062493;28;20031;-55
2023/09/15 08:29:04;;;;;;;652.53;308.08;;;;;;;;;;5059640;28;20473;-53
2023/09/15 08:31:30;;;;;;;655.90;305.05;;;;;;;;;;5059971;28;22680;-56
2023/09/15 08:33:55;;;;;;;652.15;300.80;;;;;;;;;;5057825;28;20024;-55
2023/09/15 08:36:20;;;;;;;654.35;302.15;;;;;;;;;;5061860;28;20035;-55
2023/09/15 08:38:45;;;;;;;648.92;292.13;;;;;;;;;;5063533;28;20039;-55
2023/09/15 08:41:16;;;;;;;653.33;297.63;;;;;;;;;;5062657;28;20542;-56
2023/09/15 08:43:42;;;;;;;649.30;293.00;;;;;;;;;;5046874;28;20060;-56
2023/09/15 08:46:08;;;;;;;651.60;284.23;;;;;;;;;;5055534;28;20104;-55
2023/09/15 08:48:38;;;;;;;653.55;292.48;;;;;;;;;;5062913;28;20016;-54
2023/09/15 08:51:04;;;;;;;647.13;286.42;;;;;;;;;;5059540;28;20039;-53
2023/09/15 08:53:29;;;;;;;651.17;281.17;;;;;;;;;;5060960;28;20032;-56
2023/09/15 08:55:55;;;;;;;644.38;285.85;;;;;;;;;;5050170;28;21437;-55
2023/09/15 08:58:20;;;;;;;648.58;280.48;;;;;;;;;;5053203;28;20881;-56
2023/09/15 09:00:46;;;;;;;652.03;282.35;;;;;;;;;;5055527;28;20042;-55
2023/09/15 09:03:14;;;;;;;645.38;284.02;;;;;;;;;;5055015;28;20315;-54
2023/09/15 09:05:40;;;;;;;644.73;279.03;;;;;;;;;;5059452;28;20480;-54
2023/09/15 09:08:06;;;;;;;651.92;287.00;;;;;;;;;;5062941;28;20071;-55
2023/09/15 09:10:31;;;;;;;649.83;290.88;;;;;;;;;;5055448;28;20130;-55
2023/09/15 09:12:57;;;;;;;647.85;279.95;;;;;;;;;;5064463;28;20280;-55
2023/09/15 09:15:22;;;;;;;654.72;294.30;;;;;;;;;;5054985;28;20035;-56
2023/09/15 09:17:47;;;;;;;655.50;299.48;;;;;;;;;;5058460;28;20039;-56
2023/09/15 09:20:26;;;;;;;655.83;301.15;;;;;;;;;;5056562;28;20036;-56
2023/09/15 09:22:52;;;;;;;663.55;324.98;;;;;;;;;;5065636;28;20020;-52
2023/09/15 09:25:33;;;;;;;672.13;342.30;;;;;;;;;;5063115;28;20382;-56
2023/09/15 09:27:59;;;;;;;696.17;406.48;;;;;;;;;;5065258;28;20050;-56
2023/09/15 09:30:30;;;;;;;708.30;429.33;;;;;;;;;;5064032;28;20029;-55
2023/09/15 09:32:56;;;;;;;715.83;441.08;;;;;;;;;;5064356;28;20082;-55
2023/09/15 09:35:22;;;;;;;720.42;459.35;;;;;;;;;;5052326;28;20417;-56
2023/09/15 09:37:48;;;;;;;732.78;491.40;;;;;;;;;;5062766;28;20048;-56
2023/09/15 09:40:13;;;;;;;728.15;480.88;;;;;;;;;;5054155;28;20111;-52
2023/09/15 09:42:38;;;;;;;726.65;485.02;;;;;;;;;;5044903;28;20127;-57
2023/09/15 09:45:04;;;;;;;730.03;488.30;;;;;;;;;;5046001;28;20049;-57
2023/09/15 09:47:30;;;;;;;732.35;497.77;;;;;;;;;;5057934;28;20043;-55
2023/09/15 09:49:55;;;;;;;726.60;481.27;;;;;;;;;;5063578;28;20036;-55
2023/09/15 09:52:23;;;;;;;731.63;492.55;;;;;;;;;;5065380;28;20020;-55
2023/09/15 09:54:50;;;;;;;727.10;477.90;;;;;;;;;;5064094;28;20032;-53
2023/09/15 09:57:16;;;;;;;726.80;483.98;;;;;;;;;;5064913;28;20331;-53
2023/09/15 09:59:42;;;;;;;734.17;501.80;;;;;;;;;;5057848;28;20482;-53
2023/09/15 10:02:07;;;;;;;736.08;510.40;;;;;;;;;;5064540;28;20283;-57
2023/09/15 10:04:33;;;;;;;745.83;536.22;;;;;;;;;;5057890;28;20020;-55
2023/09/15 10:06:59;;;;;;;742.15;532.13;;;;;;;;;;5063919;28;20052;-57
2023/09/15 10:09:24;;;;;;;753.58;562.45;;;;;;;;;;5063126;28;20028;-54
2023/09/15 10:11:50;;;;;;;761.08;586.10;;;;;;;;;;5064795;28;20021;-55
2023/09/15 10:14:16;;;;;;;770.20;605.38;;;;;;;;;;5064999;28;20025;-57
2023/09/15 10:16:41;;;;;;;781.20;614.05;;;;;;;;;;5084824;28;20028;-56
2023/09/15 10:19:07;;;;;;;783.33;630.97;;;;;;;;;;5080868;28;20024;-56
2023/09/15 10:21:34;;;;;;;769.17;611.78;;;;;;;;;;5063640;28;20024;-57
2023/09/15 10:24:09;;;;;;;776.13;616.53;;;;;;;;;;5064568;28;20032;-55
2023/09/15 10:26:34;;;;;;;773.03;617.80;;;;;;;;;;5062809;28;20025;-56
2023/09/15 10:29:01;;;;;;;780.67;630.45;;;;;;;;;;5066032;28;20032;-56
2023/09/15 10:31:28;;;;;;;771.58;610.53;;;;;;;;;;5067691;28;20367;-53
2023/09/15 10:33:53;;;;;;;773.72;610.35;;;;;;;;;;5066496;28;20032;-55
2023/09/15 10:36:21;;;;;;;779.38;620.28;;;;;;;;;;5067660;28;20391;-57
2023/09/15 10:38:47;;;;;;;777.33;596.90;;;;;;;;;;5059362;28;20064;-52
2023/09/15 10:41:23;;;;;;;787.55;632.78;;;;;;;;;;5047973;28;20060;-55
2023/09/15 10:43:51;;;;;;;777.40;604.92;;;;;;;;;;5057279;28;20049;-56
2023/09/15 10:46:16;;;;;;;777.70;593.22;;;;;;;;;;5045783;28;20036;-54
2023/09/15 10:48:51;;;;;;;759.20;553.67;;;;;;;;;;5067812;28;20028;-54
2023/09/15 10:51:22;;;;;;;753.47;548.22;;;;;;;;;;5066331;28;20428;-55
2023/09/15 10:53:49;;;;;;;756.97;545.75;;;;;;;;;;5067536;28;20400;-52
2023/09/15 10:56:16;;;;;;;748.75;531.03;;;;;;;;;;5068061;28;20024;-54
2023/09/15 10:58:42;;;;;;;747.67;514.25;;;;;;;;;;5069140;28;20016;-54
2023/09/15 11:01:10;;;;;;;758.40;506.38;;;;;;;;;;5056618;28;20047;-54
2023/09/15 11:03:38;;;;;;;748.83;507.60;;;;;;;;;;5060429;28;20017;-51
2023/09/15 11:06:04;;;;;;;741.65;492.50;;;;;;;;;;5067219;28;20107;-55
2023/09/15 11:08:31;;;;;;;742.53;495.65;;;;;;;;;;5062687;28;20036;-54
2023/09/15 11:10:59;;;;;;;745.80;500.83;;;;;;;;;;5067177;28;20029;-53
2023/09/15 11:13:25;;;;;;;750.25;519.25;;;;;;;;;;5068196;28;20169;-54
2023/09/15 11:15:50;;;;;;;751.38;518.83;;;;;;;;;;5066656;28;20104;-52
2023/09/15 11:18:16;;;;;;;745.42;507.77;;;;;;;;;;5068472;28;20389;-52
2023/09/15 11:20:42;;;;;;;745.55;509.85;;;;;;;;;;5065051;28;20060;-52
2023/09/15 11:23:07;;;;;;;754.85;526.40;;;;;;;;;;5058940;28;20074;-54
2023/09/15 11:25:35;;;;;;;751.00;523.70;;;;;;;;;;5064443;28;20517;-53
2023/09/15 11:28:01;;;;;;;780.47;536.95;;;;;;;;;;5064890;28;20037;-55
2023/09/15 11:30:26;;;;;;;752.55;517.47;;;;;;;;;;5066623;28;20442;-55
2023/09/15 11:32:53;;;;;;;751.22;517.17;;;;;;;;;;5066815;28;20031;-56
2023/09/15 11:35:20;;;;;;;743.97;498.55;;;;;;;;;;5051572;28;20325;-53
2023/09/15 11:37:45;;;;;;;782.38;476.85;;;;;;;;;;5060128;28;20025;-56
2023/09/15 11:40:20;;;;;;;753.65;500.67;;;;;;;;;;5057787;28;20518;-55
2023/09/15 11:42:55;;;;;;;752.65;518.58;;;;;;;;;;5068854;28;20025;-55
2023/09/15 11:45:23;;;;;;;746.65;491.38;;;;;;;;;;5061806;28;20147;-56
2023/09/15 11:47:48;;;;;;;756.53;515.67;;;;;;;;;;5055988;28;20340;-56
2023/09/15 11:50:14;;;;;;;753.95;522.65;;;;;;;;;;5064795;28;20547;-52
2023/09/15 11:52:40;;;;;;;749.13;515.00;;;;;;;;;;5064285;28;20528;-55
2023/09/15 11:55:15;;;;;;;745.97;500.23;;;;;;;;;;5068595;28;20078;-54
2023/09/15 11:57:41;;;;;;;742.28;482.73;;;;;;;;;;5070785;28;20017;-54
2023/09/15 12:00:07;;;;;;;746.72;493.70;;;;;;;;;;5065662;28;20433;-54
2023/09/15 12:02:32;;;;;;;744.13;481.95;;;;;;;;;;5066984;28;20016;-56
2023/09/15 12:04:57;;;;;;;745.67;481.95;;;;;;;;;;5062479;28;20489;-55
2023/09/15 12:07:23;;;;;;;750.45;490.08;;;;;;;;;;5051738;28;20420;-54
2023/09/15 12:09:50;;;;;;;747.38;484.73;;;;;;;;;;5064993;28;20066;-55
2023/09/15 12:12:16;;;;;;;745.63;486.42;;;;;;;;;;5065582;28;20030;-55
2023/09/15 12:14:42;;;;;;;752.40;501.10;;;;;;;;;;5064059;28;20028;-54
2023/09/15 12:17:08;;;;;;;749.60;497.55;;;;;;;;;;5065761;28;20056;-57
2023/09/15 12:19:36;;;;;;;747.17;489.13;;;;;;;;;;5063406;28;20448;-56
2023/09/15 12:22:02;;;;;;;746.90;490.30;;;;;;;;;;5055008;28;20029;-54
2023/09/15 12:24:28;;;;;;;743.67;484.73;;;;;;;;;;5054280;28;20040;-55
2023/09/15 12:26:54;;;;;;;744.42;481.55;;;;;;;;;;5046256;28;20016;-56
2023/09/15 12:29:22;;;;;;;749.55;495.17;;;;;;;;;;5059168;28;20119;-53
2023/09/15 12:31:47;;;;;;;752.93;504.70;;;;;;;;;;5058571;28;20277;-50
2023/09/15 12:34:19;;;;;;;746.17;484.65;;;;;;;;;;5063652;28;20393;-54
2023/09/15 12:36:48;;;;;;;745.30;484.00;;;;;;;;;;5065879;28;20025;-55
2023/09/15 12:39:14;;;;;;;753.95;500.90;;;;;;;;;;5043267;28;20028;-56
2023/09/15 12:41:39;;;;;;;754.10;505.52;;;;;;;;;;5062584;28;20082;-51
2023/09/15 12:44:04;;;;;;;750.35;503.70;;;;;;;;;;5060198;28;20044;-54
2023/09/15 12:46:30;;;;;;;751.17;502.95;;;;;;;;;;5047873;28;20086;-54
2023/09/15 12:48:55;;;;;;;748.25;481.25;;;;;;;;;;5058980;28;20060;-53
2023/09/15 12:51:20;;;;;;;750.17;497.27;;;;;;;;;;5062479;28;20397;-53
2023/09/15 12:53:45;;;;;;;747.00;485.45;;;;;;;;;;5065610;28;20450;-54
2023/09/15 12:56:12;;;;;;;746.28;493.20;;;;;;;;;;5063832;28;20045;-55
2023/09/15 12:58:37;;;;;;;746.45;486.30;;;;;;;;;;5048564;28;20522;-56
2023/09/15 13:01:02;;;;;;;746.67;488.52;;;;;;;;;;5059758;28;20071;-56
2023/09/15 13:03:28;;;;;;;745.90;492.63;;;;;;;;;;5064967;28;20047;-56
2023/09/15 13:05:54;;;;;;;745.15;484.27;;;;;;;;;;5062352;28;20040;-50
2023/09/15 13:08:19;;;;;;;749.08;489.60;;;;;;;;;;5063755;28;20039;-55
2023/09/15 13:10:44;;;;;;;752.60;501.30;;;;;;;;;;5064395;28;20072;-50
2023/09/15 13:13:10;;;;;;;750.63;489.80;;;;;;;;;;5040025;28;20051;-53
2023/09/15 13:15:36;;;;;;;749.22;488.83;;;;;;;;;;5062894;28;20128;-56
2023/09/15 13:18:02;;;;;;;750.45;490.00;;;;;;;;;;5076150;28;20115;-54
2023/09/15 13:20:27;;;;;;;747.78;485.52;;;;;;;;;;5070906;28;20021;-53
2023/09/15 13:22:53;;;;;;;747.97;490.30;;;;;;;;;;5064574;28;20058;-56
2023/09/15 13:25:18;;;;;;;762.55;489.10;;;;;;;;;;5064315;28;20174;-56
2023/09/15 13:27:43;;;;;;;744.10;473.73;;;;;;;;;;5064420;28;20316;-55
2023/09/15 13:30:10;;;;;;;740.63;465.92;;;;;;;;;;5051704;28;20031;-55
2023/09/15 13:32:35;;;;;;;741.00;465.35;;;;;;;;;;5058779;28;20031;-53
2023/09/15 13:35:01;;;;;;;741.40;459.98;;;;;;;;;;5057846;28;20028;-56
2023/09/15 13:37:26;;;;;;;742.30;469.80;;;;;;;;;;5064691;28;20409;-56
2023/09/15 13:39:51;;;;;;;737.20;451.95;;;;;;;;;;5057304;28;20370;-54
2023/09/15 13:42:18;;;;;;;734.90;457.67;;;;;;;;;;5057439;28;20032;-55
2023/09/15 13:44:43;;;;;;;740.70;468.75;;;;;;;;;;5051848;28;20044;-56
2023/09/15 13:47:09;;;;;;;738.25;455.90;;;;;;;;;;5045654;28;20382;-54